THA992 KSLC-KORD
Flight info
| Callsign | THA992 |
|---|---|
| Flight time | N/A |
| Altitude | 41000 |
| Route | RUGGD3 OCS J94 ONL FOD MYRRS FYTTE7 |
| Aircraft | A359/H-SDE2E3GHIJ3J4J5LM1ORWXY/LB1D1 |
Departure
| Time | N/A |
|---|---|
| Airport | Salt Lake City International Airport (KSLC) |
Arrival
| Time | 2026-05-04 07:28 |
|---|---|
| Airport | Chicago O'Hare International Airport (KORD) |
| Time | Latitude | Longitude | Altitude | Speed | Heading |
|---|---|---|---|---|---|
| 2026-05-04 05:09 | 41.05535 | -111.30605 | 25208 ft | 455 kts | 84° |
| 2026-05-04 05:09 | 41.05914 | -111.26433 | 25838 ft | 458 kts | 84° |
| 2026-05-04 05:10 | 41.06291 | -111.22224 | 26447 ft | 461 kts | 84° |
| 2026-05-04 05:10 | 41.06663 | -111.17993 | 27047 ft | 464 kts | 84° |
| 2026-05-04 05:10 | 41.07032 | -111.13732 | 27645 ft | 467 kts | 84° |
| 2026-05-04 05:10 | 41.07403 | -111.09432 | 28164 ft | 472 kts | 84° |
| 2026-05-04 05:11 | 41.07935 | -111.05181 | 28689 ft | 476 kts | 77° |
| 2026-05-04 05:11 | 41.08908 | -111.00915 | 29268 ft | 479 kts | 72° |
| 2026-05-04 05:11 | 41.09992 | -110.96783 | 29805 ft | 483 kts | 71° |
| 2026-05-04 05:11 | 41.11110 | -110.92571 | 30273 ft | 486 kts | 71° |
| 2026-05-04 05:12 | 41.12232 | -110.88328 | 30692 ft | 489 kts | 71° |
| 2026-05-04 05:12 | 41.13357 | -110.84050 | 31103 ft | 492 kts | 71° |
| 2026-05-04 05:12 | 41.14483 | -110.79759 | 31484 ft | 494 kts | 71° |
| 2026-05-04 05:12 | 41.15616 | -110.75425 | 31760 ft | 499 kts | 71° |
| 2026-05-04 05:13 | 41.16757 | -110.71058 | 32100 ft | 502 kts | 71° |
| 2026-05-04 05:13 | 41.17895 | -110.66657 | 32452 ft | 504 kts | 72° |
| 2026-05-04 05:13 | 41.19028 | -110.62246 | 32839 ft | 506 kts | 72° |
| 2026-05-04 05:13 | 41.20165 | -110.57815 | 33277 ft | 507 kts | 72° |
| 2026-05-04 05:14 | 41.21301 | -110.53389 | 33815 ft | 505 kts | 72° |
| 2026-05-04 05:14 | 41.22429 | -110.48983 | 34281 ft | 504 kts | 72° |
| 2026-05-04 05:14 | 41.23557 | -110.44569 | 34577 ft | 506 kts | 71° |
| 2026-05-04 05:14 | 41.24691 | -110.40125 | 34801 ft | 509 kts | 71° |
| 2026-05-04 05:15 | 41.25830 | -110.35657 | 35119 ft | 510 kts | 71° |
| 2026-05-04 05:15 | 41.26966 | -110.31194 | 35452 ft | 510 kts | 71° |
| 2026-05-04 05:15 | 41.28101 | -110.26721 | 35729 ft | 511 kts | 71° |
| 2026-05-04 05:15 | 41.29225 | -110.22288 | 35994 ft | 512 kts | 71° |
| 2026-05-04 05:16 | 41.30362 | -110.17793 | 36256 ft | 513 kts | 71° |
| 2026-05-04 05:16 | 41.31498 | -110.13292 | 36527 ft | 514 kts | 71° |
| 2026-05-04 05:16 | 41.32636 | -110.08776 | 36749 ft | 516 kts | 71° |
| 2026-05-04 05:16 | 41.33775 | -110.04249 | 36991 ft | 516 kts | 71° |
| 2026-05-04 05:17 | 41.34915 | -109.99709 | 37251 ft | 517 kts | 71° |
| 2026-05-04 05:17 | 41.36055 | -109.95158 | 37495 ft | 518 kts | 71° |
| 2026-05-04 05:17 | 41.37192 | -109.90610 | 37738 ft | 518 kts | 71° |
| 2026-05-04 05:17 | 41.38329 | -109.86057 | 37994 ft | 519 kts | 71° |
| 2026-05-04 05:18 | 41.39467 | -109.81491 | 38244 ft | 519 kts | 71° |
| 2026-05-04 05:18 | 41.40605 | -109.76912 | 38476 ft | 520 kts | 71° |
| 2026-05-04 05:18 | 41.41742 | -109.72328 | 38658 ft | 521 kts | 71° |
| 2026-05-04 05:18 | 41.42879 | -109.67739 | 38881 ft | 521 kts | 71° |
| 2026-05-04 05:19 | 41.44011 | -109.63160 | 39103 ft | 521 kts | 71° |
| 2026-05-04 05:19 | 41.45129 | -109.58626 | 39330 ft | 521 kts | 71° |
| 2026-05-04 05:19 | 41.46258 | -109.54041 | 39518 ft | 521 kts | 71° |
| 2026-05-04 05:19 | 41.47385 | -109.49454 | 39707 ft | 521 kts | 71° |
| 2026-05-04 05:20 | 41.48513 | -109.44853 | 39939 ft | 521 kts | 70° |
| 2026-05-04 05:20 | 41.49639 | -109.40256 | 40133 ft | 522 kts | 71° |
| 2026-05-04 05:20 | 41.50766 | -109.35642 | 40334 ft | 522 kts | 71° |
| 2026-05-04 05:20 | 41.51889 | -109.31034 | 40521 ft | 522 kts | 71° |
| 2026-05-04 05:21 | 41.53011 | -109.26425 | 40744 ft | 522 kts | 71° |
| 2026-05-04 05:21 | 41.54131 | -109.21810 | 40928 ft | 522 kts | 71° |
| 2026-05-04 05:21 | 41.56371 | -109.12559 | 41024 ft | 523 kts | 71° |
| 2026-05-04 05:22 | 41.58564 | -109.03292 | 41023 ft | 524 kts | 73° |
| 2026-05-04 05:22 | 41.59739 | -108.93752 | 41021 ft | 525 kts | 83° |
| 2026-05-04 05:23 | 41.60483 | -108.84043 | 40980 ft | 525 kts | 84° |
| 2026-05-04 05:23 | 41.61176 | -108.74322 | 40856 ft | 525 kts | 84° |
| 2026-05-04 05:24 | 41.61893 | -108.64609 | 40850 ft | 525 kts | 83° |
| 2026-05-04 05:24 | 41.62506 | -108.56467 | 40839 ft | 525 kts | 83° |
| 2026-05-04 05:25 | 41.63232 | -108.46805 | 40845 ft | 525 kts | 83° |
| 2026-05-04 05:25 | 41.63954 | -108.37072 | 40840 ft | 526 kts | 83° |
| 2026-05-04 05:26 | 41.64666 | -108.27333 | 40839 ft | 526 kts | 83° |
| 2026-05-04 05:26 | 41.65371 | -108.17586 | 40840 ft | 526 kts | 84° |
| 2026-05-04 05:28 | 41.68105 | -107.78590 | 40837 ft | 526 kts | 84° |
| 2026-05-04 05:29 | 41.68764 | -107.68898 | 40839 ft | 526 kts | 84° |
| 2026-05-04 05:29 | 41.69419 | -107.59141 | 40864 ft | 526 kts | 84° |
| 2026-05-04 05:31 | 41.71648 | -107.24953 | 40995 ft | 526 kts | 84° |
| 2026-05-04 05:31 | 41.71958 | -107.20072 | 40994 ft | 526 kts | 84° |
| 2026-05-04 05:32 | 41.72571 | -107.10311 | 40982 ft | 527 kts | 84° |
| 2026-05-04 05:33 | 41.73473 | -106.95687 | 40932 ft | 527 kts | 84° |
| 2026-05-04 05:33 | 41.74067 | -106.85899 | 40827 ft | 527 kts | 84° |
| 2026-05-04 05:34 | 41.74654 | -106.76094 | 40828 ft | 527 kts | 84° |
| 2026-05-04 05:34 | 41.75232 | -106.66295 | 40828 ft | 527 kts | 84° |
| 2026-05-04 05:35 | 41.75801 | -106.56491 | 40825 ft | 527 kts | 84° |
| 2026-05-04 05:35 | 41.76361 | -106.46704 | 40826 ft | 527 kts | 84° |
| 2026-05-04 05:36 | 41.76914 | -106.36908 | 40828 ft | 527 kts | 84° |
| 2026-05-04 05:36 | 41.77454 | -106.27169 | 40825 ft | 527 kts | 84° |
| 2026-05-04 05:37 | 41.77990 | -106.17377 | 40820 ft | 526 kts | 84° |
| 2026-05-04 05:37 | 41.78516 | -106.07594 | 40821 ft | 526 kts | 84° |
| 2026-05-04 05:38 | 41.79290 | -105.92915 | 40815 ft | 526 kts | 84° |
| 2026-05-04 05:38 | 41.79796 | -105.83124 | 40819 ft | 526 kts | 84° |
| 2026-05-04 05:39 | 41.80539 | -105.68447 | 40815 ft | 526 kts | 84° |
| 2026-05-04 05:40 | 41.81260 | -105.53815 | 40821 ft | 526 kts | 84° |
| 2026-05-04 05:40 | 41.81732 | -105.44027 | 40825 ft | 525 kts | 84° |
| 2026-05-04 05:41 | 41.82196 | -105.34250 | 40838 ft | 526 kts | 84° |
| 2026-05-04 05:41 | 41.82651 | -105.24467 | 40841 ft | 525 kts | 84° |
| 2026-05-04 05:42 | 41.83098 | -105.14683 | 40852 ft | 525 kts | 85° |
| 2026-05-04 05:42 | 41.83537 | -105.04907 | 40863 ft | 525 kts | 85° |
| 2026-05-04 05:43 | 41.83967 | -104.95121 | 40899 ft | 525 kts | 85° |
| 2026-05-04 05:45 | 41.85601 | -104.56082 | 40887 ft | 524 kts | 85° |
| 2026-05-04 05:47 | 41.87100 | -104.17047 | 40888 ft | 524 kts | 85° |
| 2026-05-04 05:47 | 41.87455 | -104.07270 | 40887 ft | 524 kts | 85° |
| 2026-05-04 05:48 | 41.87802 | -103.97502 | 40877 ft | 524 kts | 85° |
| 2026-05-04 05:48 | 41.88140 | -103.87738 | 40889 ft | 524 kts | 85° |
| 2026-05-04 05:49 | 41.88467 | -103.78033 | 40898 ft | 523 kts | 85° |
| 2026-05-04 05:49 | 41.88788 | -103.68276 | 40907 ft | 522 kts | 85° |
| 2026-05-04 05:51 | 41.92029 | -103.29743 | 40887 ft | 518 kts | 77° |
| 2026-05-04 05:52 | 41.93361 | -103.20228 | 40883 ft | 518 kts | 77° |
| 2026-05-04 05:52 | 41.94689 | -103.10717 | 40890 ft | 518 kts | 77° |
| 2026-05-04 05:54 | 41.99897 | -102.72718 | 40906 ft | 517 kts | 77° |
| 2026-05-04 05:55 | 42.01180 | -102.63204 | 40891 ft | 517 kts | 77° |
| 2026-05-04 05:55 | 42.02455 | -102.53680 | 40882 ft | 517 kts | 77° |
| 2026-05-04 05:56 | 42.03722 | -102.44157 | 40864 ft | 517 kts | 77° |
| 2026-05-04 05:56 | 42.04982 | -102.34629 | 40856 ft | 517 kts | 77° |
| 2026-05-04 05:57 | 42.06225 | -102.25160 | 40835 ft | 517 kts | 78° |
| 2026-05-04 05:57 | 42.07468 | -102.15623 | 40838 ft | 517 kts | 78° |
| 2026-05-04 05:58 | 42.08703 | -102.06091 | 40838 ft | 517 kts | 78° |
| 2026-05-04 05:58 | 42.09931 | -101.96548 | 40840 ft | 517 kts | 78° |
| 2026-05-04 05:59 | 42.11152 | -101.86991 | 40833 ft | 517 kts | 78° |
| 2026-05-04 05:59 | 42.12363 | -101.77444 | 40839 ft | 517 kts | 78° |
| 2026-05-04 06:00 | 42.13570 | -101.67864 | 40833 ft | 518 kts | 78° |
| 2026-05-04 06:00 | 42.14761 | -101.58347 | 40840 ft | 518 kts | 78° |
| 2026-05-04 06:01 | 42.15950 | -101.48778 | 40837 ft | 518 kts | 78° |
| 2026-05-04 06:03 | 42.20632 | -101.10425 | 40830 ft | 518 kts | 78° |
| 2026-05-04 06:05 | 42.25740 | -100.67265 | 40820 ft | 518 kts | 78° |
| 2026-05-04 06:06 | 42.26857 | -100.57629 | 40824 ft | 518 kts | 78° |
| 2026-05-04 06:06 | 42.27957 | -100.48067 | 40820 ft | 519 kts | 78° |
| 2026-05-04 06:07 | 42.29056 | -100.38441 | 40812 ft | 519 kts | 79° |
| 2026-05-04 06:07 | 42.30149 | -100.28792 | 40812 ft | 519 kts | 79° |
| 2026-05-04 06:08 | 42.31233 | -100.19155 | 40823 ft | 519 kts | 79° |
| 2026-05-04 06:08 | 42.32307 | -100.09523 | 40803 ft | 519 kts | 79° |
| 2026-05-04 06:09 | 42.33374 | -99.99881 | 40804 ft | 519 kts | 79° |
| 2026-05-04 06:11 | 42.37556 | -99.61338 | 40789 ft | 519 kts | 79° |
| 2026-05-04 06:13 | 42.41446 | -99.24312 | 40788 ft | 519 kts | 79° |
| 2026-05-04 06:14 | 42.44891 | -98.90495 | 40799 ft | 518 kts | 79° |
| 2026-05-04 06:15 | 42.45860 | -98.80804 | 40804 ft | 518 kts | 79° |
| 2026-05-04 06:15 | 42.46819 | -98.71122 | 40821 ft | 519 kts | 79° |
| 2026-05-04 06:16 | 42.47619 | -98.61467 | 40804 ft | 520 kts | 83° |
| 2026-05-04 06:16 | 42.48037 | -98.51693 | 40801 ft | 520 kts | 84° |
| 2026-05-04 06:17 | 42.48426 | -98.41890 | 40786 ft | 520 kts | 84° |
| 2026-05-04 06:17 | 42.48866 | -98.32109 | 40797 ft | 520 kts | 84° |
| 2026-05-04 06:18 | 42.49329 | -98.22347 | 40793 ft | 520 kts | 84° |
| 2026-05-04 06:20 | 42.51111 | -97.83300 | 40797 ft | 519 kts | 84° |
| 2026-05-04 06:21 | 42.52153 | -97.58868 | 40801 ft | 519 kts | 84° |
| 2026-05-04 06:22 | 42.52556 | -97.49069 | 40791 ft | 519 kts | 84° |
| 2026-05-04 06:25 | 42.55139 | -96.80648 | 40777 ft | 519 kts | 85° |
| 2026-05-04 06:26 | 42.55475 | -96.70865 | 40773 ft | 519 kts | 85° |
| 2026-05-04 06:26 | 42.55803 | -96.61082 | 40767 ft | 519 kts | 85° |
| 2026-05-04 06:27 | 42.56583 | -96.36669 | 40777 ft | 519 kts | 85° |
| 2026-05-04 06:28 | 42.56882 | -96.26879 | 40769 ft | 519 kts | 85° |
| 2026-05-04 06:28 | 42.57172 | -96.17098 | 40758 ft | 519 kts | 85° |
| 2026-05-04 06:29 | 42.57454 | -96.07305 | 40774 ft | 519 kts | 85° |
| 2026-05-04 06:29 | 42.57727 | -95.97513 | 40761 ft | 519 kts | 85° |
| 2026-05-04 06:30 | 42.57990 | -95.87788 | 40763 ft | 519 kts | 85° |
| 2026-05-04 06:30 | 42.58247 | -95.78001 | 40766 ft | 519 kts | 86° |
| 2026-05-04 06:31 | 42.58496 | -95.68213 | 40771 ft | 519 kts | 86° |
| 2026-05-04 06:31 | 42.58735 | -95.58418 | 40773 ft | 519 kts | 86° |
| 2026-05-04 06:33 | 42.59612 | -95.19300 | 40782 ft | 518 kts | 86° |
| 2026-05-04 06:34 | 42.59810 | -95.09523 | 40777 ft | 518 kts | 86° |
| 2026-05-04 06:34 | 42.60000 | -94.99737 | 40776 ft | 518 kts | 86° |
| 2026-05-04 06:36 | 42.60675 | -94.60670 | 40787 ft | 518 kts | 87° |
| 2026-05-04 06:37 | 42.60823 | -94.50886 | 40787 ft | 518 kts | 87° |
| 2026-05-04 06:37 | 42.60963 | -94.41117 | 40790 ft | 518 kts | 87° |
| 2026-05-04 06:38 | 42.61095 | -94.31333 | 40787 ft | 518 kts | 87° |
| 2026-05-04 06:40 | 42.59966 | -93.92194 | 40763 ft | 519 kts | 91° |
| 2026-05-04 06:40 | 42.59642 | -93.82413 | 40762 ft | 519 kts | 91° |
| 2026-05-04 06:41 | 42.59313 | -93.72700 | 40758 ft | 519 kts | 91° |
| 2026-05-04 06:41 | 42.58973 | -93.62914 | 40763 ft | 519 kts | 91° |
| 2026-05-04 06:42 | 42.58625 | -93.53116 | 40771 ft | 519 kts | 91° |
| 2026-05-04 06:44 | 42.57155 | -93.14056 | 40780 ft | 519 kts | 91° |
| 2026-05-04 06:44 | 42.56766 | -93.04277 | 40789 ft | 518 kts | 91° |
| 2026-05-04 06:45 | 42.56369 | -92.94515 | 40768 ft | 518 kts | 91° |
| 2026-05-04 06:45 | 42.55963 | -92.84732 | 40756 ft | 518 kts | 91° |
| 2026-05-04 06:46 | 42.55550 | -92.74973 | 40760 ft | 518 kts | 91° |
| 2026-05-04 06:46 | 42.55128 | -92.65204 | 40771 ft | 518 kts | 91° |
| 2026-05-04 06:48 | 42.53359 | -92.26189 | 40764 ft | 519 kts | 92° |
| 2026-05-04 06:50 | 42.52484 | -91.87092 | 40321 ft | 518 kts | 87° |
| 2026-05-04 06:51 | 42.52531 | -91.82201 | 40089 ft | 518 kts | 87° |
| 2026-05-04 06:51 | 42.52568 | -91.77318 | 39842 ft | 518 kts | 87° |
| 2026-05-04 06:51 | 42.52598 | -91.72430 | 39600 ft | 517 kts | 87° |
| 2026-05-04 06:51 | 42.52623 | -91.67623 | 39374 ft | 516 kts | 87° |
| 2026-05-04 06:52 | 42.52645 | -91.62752 | 39139 ft | 516 kts | 87° |
| 2026-05-04 06:52 | 42.52665 | -91.57877 | 38902 ft | 515 kts | 88° |
| 2026-05-04 06:52 | 42.52683 | -91.53022 | 38692 ft | 515 kts | 88° |
| 2026-05-04 06:52 | 42.52696 | -91.48166 | 38493 ft | 514 kts | 87° |
| 2026-05-04 06:53 | 42.52707 | -91.43318 | 38212 ft | 514 kts | 87° |
| 2026-05-04 06:53 | 42.52715 | -91.38471 | 37920 ft | 514 kts | 87° |
| 2026-05-04 06:53 | 42.52722 | -91.33628 | 37645 ft | 514 kts | 87° |
| 2026-05-04 06:53 | 42.52727 | -91.28783 | 37367 ft | 513 kts | 87° |
| 2026-05-04 06:54 | 42.52729 | -91.23944 | 37096 ft | 513 kts | 87° |
| 2026-05-04 06:54 | 42.52730 | -91.19110 | 36825 ft | 513 kts | 87° |
| 2026-05-04 06:54 | 42.52728 | -91.14326 | 36572 ft | 513 kts | 87° |
| 2026-05-04 06:54 | 42.52725 | -91.09434 | 36306 ft | 514 kts | 87° |
| 2026-05-04 06:55 | 42.52719 | -91.04641 | 36043 ft | 514 kts | 87° |
| 2026-05-04 06:55 | 42.52712 | -90.99793 | 35792 ft | 514 kts | 87° |
| 2026-05-04 06:55 | 42.52702 | -90.94949 | 35542 ft | 514 kts | 87° |
| 2026-05-04 06:55 | 42.52691 | -90.90102 | 35305 ft | 514 kts | 87° |
| 2026-05-04 06:56 | 42.52677 | -90.85252 | 35049 ft | 514 kts | 87° |
| 2026-05-04 06:57 | 42.52525 | -90.51346 | 33265 ft | 514 kts | 87° |
| 2026-05-04 06:58 | 42.52496 | -90.46497 | 33000 ft | 515 kts | 87° |
| 2026-05-04 06:58 | 42.52464 | -90.41641 | 32732 ft | 515 kts | 87° |
| 2026-05-04 06:58 | 42.52430 | -90.36778 | 32469 ft | 516 kts | 87° |
| 2026-05-04 06:58 | 42.52393 | -90.31912 | 32197 ft | 517 kts | 87° |
| 2026-05-04 06:59 | 42.52368 | -90.28687 | 31918 ft | 515 kts | 87° |
| 2026-05-04 06:59 | 42.52329 | -90.23797 | 30920 ft | 517 kts | 88° |
| 2026-05-04 06:59 | 42.52274 | -90.17315 | 29457 ft | 521 kts | 88° |
| 2026-05-04 06:59 | 42.52244 | -90.13987 | 28704 ft | 522 kts | 88° |
| 2026-05-04 07:01 | 42.51885 | -89.80578 | 23333 ft | 495 kts | 89° |
| 2026-05-04 07:01 | 42.51626 | -89.75943 | 22574 ft | 491 kts | 97° |
| 2026-05-04 07:02 | 42.51118 | -89.71468 | 21925 ft | 483 kts | 98° |
| 2026-05-04 07:02 | 42.50571 | -89.67012 | 21247 ft | 476 kts | 99° |
| 2026-05-04 07:02 | 42.50027 | -89.62615 | 20759 ft | 467 kts | 99° |
| 2026-05-04 07:02 | 42.49501 | -89.58356 | 20627 ft | 449 kts | 99° |
| 2026-05-04 07:03 | 42.48994 | -89.54254 | 20513 ft | 432 kts | 99° |
| 2026-05-04 07:03 | 42.48506 | -89.50306 | 20357 ft | 417 kts | 99° |
| 2026-05-04 07:03 | 42.48034 | -89.46490 | 20167 ft | 405 kts | 99° |
| 2026-05-04 07:03 | 42.47569 | -89.42736 | 19637 ft | 404 kts | 99° |
| 2026-05-04 07:04 | 42.47104 | -89.38992 | 19120 ft | 402 kts | 99° |
| 2026-05-04 07:04 | 42.46645 | -89.35262 | 18653 ft | 400 kts | 99° |
| 2026-05-04 07:04 | 42.46190 | -89.31546 | 18181 ft | 398 kts | 99° |
| 2026-05-04 07:04 | 42.45744 | -89.27905 | 17678 ft | 395 kts | 99° |
| 2026-05-04 07:05 | 42.45293 | -89.24254 | 17207 ft | 391 kts | 99° |
| 2026-05-04 07:05 | 42.44847 | -89.20645 | 16887 ft | 384 kts | 99° |
| 2026-05-04 07:05 | 42.44406 | -89.17097 | 16483 ft | 380 kts | 99° |
| 2026-05-04 07:05 | 42.43967 | -89.13567 | 16031 ft | 378 kts | 99° |
| 2026-05-04 07:06 | 42.43089 | -89.06598 | 15150 ft | 373 kts | 99° |
| 2026-05-04 07:06 | 42.42647 | -89.03142 | 14715 ft | 371 kts | 99° |
| 2026-05-04 07:06 | 42.42216 | -88.99717 | 14296 ft | 368 kts | 99° |
| 2026-05-04 07:07 | 42.41793 | -88.96359 | 14114 ft | 356 kts | 99° |
| 2026-05-04 07:08 | 42.38954 | -88.74105 | 11794 ft | 318 kts | 99° |
| 2026-05-04 07:09 | 42.38575 | -88.71169 | 11462 ft | 315 kts | 99° |
| 2026-05-04 07:09 | 42.38198 | -88.68255 | 11148 ft | 313 kts | 99° |
| 2026-05-04 07:09 | 42.37826 | -88.65373 | 10894 ft | 310 kts | 99° |
| 2026-05-04 07:09 | 42.37448 | -88.62453 | 10757 ft | 317 kts | 100° |
| 2026-05-04 07:10 | 42.37062 | -88.59512 | 10622 ft | 317 kts | 100° |
| 2026-05-04 07:10 | 42.36677 | -88.56575 | 10476 ft | 317 kts | 100° |
| 2026-05-04 07:12 | 42.33032 | -88.36763 | 9444 ft | 308 kts | 127° |
| 2026-05-04 07:12 | 42.31773 | -88.34420 | 9271 ft | 308 kts | 128° |
| 2026-05-04 07:12 | 42.30506 | -88.32091 | 9151 ft | 307 kts | 128° |
| 2026-05-04 07:12 | 42.29222 | -88.29781 | 8999 ft | 306 kts | 131° |
| 2026-05-04 07:13 | 42.27839 | -88.27603 | 8836 ft | 305 kts | 134° |
| 2026-05-04 07:13 | 42.26438 | -88.25451 | 8711 ft | 304 kts | 133° |
| 2026-05-04 07:13 | 42.25055 | -88.23304 | 8554 ft | 303 kts | 133° |
| 2026-05-04 07:14 | 42.19475 | -88.14918 | 7997 ft | 297 kts | 148° |
| 2026-05-04 07:14 | 42.17651 | -88.13683 | 7852 ft | 291 kts | 162° |
| 2026-05-04 07:15 | 42.15762 | -88.12716 | 7727 ft | 291 kts | 163° |
| 2026-05-04 07:15 | 42.13863 | -88.11770 | 7597 ft | 290 kts | 163° |
| 2026-05-04 07:15 | 42.11975 | -88.10823 | 7462 ft | 289 kts | 163° |
| 2026-05-04 07:15 | 42.10092 | -88.09870 | 7326 ft | 289 kts | 163° |
| 2026-05-04 07:16 | 42.08210 | -88.08914 | 7182 ft | 288 kts | 163° |
| 2026-05-04 07:16 | 42.06333 | -88.07959 | 7053 ft | 288 kts | 163° |
| 2026-05-04 07:16 | 42.04454 | -88.07002 | 6919 ft | 288 kts | 163° |
| 2026-05-04 07:16 | 42.02606 | -88.06060 | 6770 ft | 287 kts | 163° |
| 2026-05-04 07:17 | 42.00738 | -88.05108 | 6649 ft | 287 kts | 163° |
| 2026-05-04 07:17 | 41.98876 | -88.04159 | 6510 ft | 286 kts | 163° |
| 2026-05-04 07:17 | 41.97018 | -88.03213 | 6368 ft | 285 kts | 163° |
| 2026-05-04 07:17 | 41.95161 | -88.02269 | 6246 ft | 285 kts | 163° |
| 2026-05-04 07:18 | 41.93309 | -88.01327 | 6097 ft | 284 kts | 163° |
| 2026-05-04 07:18 | 41.91459 | -88.00381 | 5971 ft | 285 kts | 162° |
| 2026-05-04 07:18 | 41.89738 | -87.99046 | 5830 ft | 290 kts | 141° |
| 2026-05-04 07:18 | 41.88627 | -87.96789 | 5688 ft | 294 kts | 108° |
| 2026-05-04 07:19 | 41.88363 | -87.94086 | 5563 ft | 293 kts | 90° |
| 2026-05-04 07:19 | 41.88373 | -87.91344 | 5414 ft | 293 kts | 88° |
| 2026-05-04 07:19 | 41.88401 | -87.88609 | 5280 ft | 293 kts | 88° |
| 2026-05-04 07:19 | 41.88417 | -87.85917 | 5144 ft | 292 kts | 89° |
| 2026-05-04 07:20 | 41.88425 | -87.83193 | 5007 ft | 292 kts | 89° |
| 2026-05-04 07:20 | 41.88428 | -87.80471 | 4878 ft | 291 kts | 89° |
| 2026-05-04 07:20 | 41.88430 | -87.77753 | 4740 ft | 291 kts | 89° |
| 2026-05-04 07:20 | 41.88430 | -87.75041 | 4606 ft | 290 kts | 89° |
| 2026-05-04 07:22 | 41.92379 | -87.59719 | 3667 ft | 259 kts | 351° |
| 2026-05-04 07:22 | 41.94050 | -87.60448 | 3556 ft | 250 kts | 324° |
| 2026-05-04 07:23 | 41.95241 | -87.61960 | 3464 ft | 231 kts | 306° |
| 2026-05-04 07:23 | 41.96141 | -87.63668 | 3365 ft | 217 kts | 300° |
| 2026-05-04 07:23 | 41.96706 | -87.65467 | 3264 ft | 203 kts | 287° |
| 2026-05-04 07:23 | 41.96911 | -87.67274 | 3189 ft | 189 kts | 272° |
| 2026-05-04 07:24 | 41.96912 | -87.68937 | 3117 ft | 166 kts | 271° |
| 2026-05-04 07:24 | 41.96913 | -87.70413 | 3039 ft | 154 kts | 271° |
| 2026-05-04 07:24 | 41.96913 | -87.71780 | 2965 ft | 139 kts | 271° |
| 2026-05-04 07:24 | 41.96918 | -87.73058 | 2893 ft | 136 kts | 271° |
| 2026-05-04 07:25 | 41.96926 | -87.74291 | 2734 ft | 129 kts | 271° |
| 2026-05-04 07:26 | 41.96912 | -87.82508 | 1531 ft | 126 kts | 271° |
| 2026-05-04 07:27 | 41.96914 | -87.83675 | 1319 ft | 127 kts | 269° |
| 2026-05-04 07:27 | 41.96913 | -87.84868 | 1141 ft | 129 kts | 269° |
| 2026-05-04 07:27 | 41.96917 | -87.86079 | 1012 ft | 130 kts | 268° |
| 2026-05-04 07:27 | 41.96916 | -87.87283 | 881 ft | 129 kts | 267° |
| 2026-05-04 07:28 | 41.96913 | -87.88495 | 748 ft | 130 kts | 266° |
| 2026-05-04 07:28 | 41.96906 | -87.89679 | 674 ft | 120 kts | 270° |
| 2026-05-04 07:28 | 41.96904 | -87.90549 | 672 ft | 61 kts | 270° |
| 2026-05-04 07:28 | 41.96905 | -87.90958 | 675 ft | 17 kts | 270° |
| 2026-05-04 07:29 | 41.96905 | -87.91110 | 675 ft | 16 kts | 270° |
| 2026-05-04 07:29 | 41.96930 | -87.91245 | 677 ft | 15 kts | 312° |
| 2026-05-04 07:29 | 41.96972 | -87.91292 | 679 ft | 0 kts | 316° |
| 2026-05-04 07:29 | 41.96980 | -87.91302 | 679 ft | 10 kts | 316° |
| 2026-05-04 07:30 | 41.97036 | -87.91386 | 677 ft | 8 kts | 288° |
| 2026-05-04 07:30 | 41.97041 | -87.91474 | 682 ft | 13 kts | 268° |
| 2026-05-04 07:30 | 41.97038 | -87.91612 | 681 ft | 16 kts | 270° |
| 2026-05-04 07:30 | 41.97040 | -87.91774 | 683 ft | 19 kts | 269° |
| 2026-05-04 07:31 | 41.97039 | -87.91966 | 682 ft | 21 kts | 270° |
| 2026-05-04 07:31 | 41.97046 | -87.92071 | 675 ft | 6 kts | 301° |
| 2026-05-04 07:33 | 41.97156 | -87.91530 | 682 ft | 24 kts | 90° |
| 2026-05-04 07:33 | 41.97159 | -87.91331 | 680 ft | 9 kts | 82° |
| 2026-05-04 07:33 | 41.97193 | -87.91244 | 675 ft | 13 kts | 47° |
| 2026-05-04 07:33 | 41.97259 | -87.91133 | 674 ft | 13 kts | 69° |
| 2026-05-04 07:34 | 41.97281 | -87.91034 | 675 ft | 9 kts | 49° |
| 2026-05-04 07:34 | 41.97285 | -87.90943 | 674 ft | 9 kts | 126° |
| 2026-05-04 07:34 | 41.97229 | -87.90865 | 676 ft | 13 kts | 134° |
| 2026-05-04 07:34 | 41.97169 | -87.90753 | 674 ft | 17 kts | 117° |
| 2026-05-04 07:35 | 41.97151 | -87.90619 | 672 ft | 16 kts | 96° |
| 2026-05-04 07:35 | 41.97142 | -87.90460 | 672 ft | 18 kts | 91° |
| 2026-05-04 07:35 | 41.97137 | -87.90286 | 674 ft | 20 kts | 92° |
| 2026-05-04 07:35 | 41.97137 | -87.90087 | 673 ft | 21 kts | 90° |
| 2026-05-04 07:36 | 41.97140 | -87.89916 | 676 ft | 15 kts | 87° |
| 2026-05-04 07:36 | 41.97171 | -87.89783 | 676 ft | 16 kts | 60° |
| 2026-05-04 07:38 | 41.97587 | -87.89377 | 664 ft | 8 kts | 62° |
| 2026-05-04 07:38 | 41.97634 | -87.89321 | 663 ft | 9 kts | 47° |
| 2026-05-04 07:38 | 41.97653 | -87.89273 | 663 ft | 4 kts | 68° |
| 2026-05-04 07:38 | 41.97654 | -87.89271 | 663 ft | 0 kts | 68° |